sensor_id;sensor_type;location;lat;lon;timestamp;P1;durP1;ratioP1;P2;durP2;ratioP2
13222;SDS011;6676;45.192;5.722;2023-01-15T00:01:25;15.23;;;9.58;;
13222;SDS011;6676;45.192;5.722;2023-01-15T00:04:18;14.10;;;9.35;;
13222;SDS011;6676;45.192;5.722;2023-01-15T00:09:53;12.73;;;9.33;;
13222;SDS011;6676;45.192;5.722;2023-01-15T00:15:42;10.98;;;8.65;;
13222;SDS011;6676;45.192;5.722;2023-01-15T00:18:41;12.18;;;9.25;;
13222;SDS011;6676;45.192;5.722;2023-01-15T00:21:33;13.48;;;9.03;;
13222;SDS011;6676;45.192;5.722;2023-01-15T00:24:25;11.85;;;8.75;;
13222;SDS011;6676;45.192;5.722;2023-01-15T00:30:20;11.75;;;9.15;;
13222;SDS011;6676;45.192;5.722;2023-01-15T00:33:19;12.25;;;9.33;;
13222;SDS011;6676;45.192;5.722;2023-01-15T00:36:11;12.53;;;8.48;;
13222;SDS011;6676;45.192;5.722;2023-01-15T00:38:52;11.97;;;9.23;;
13222;SDS011;6676;45.192;5.722;2023-01-15T00:41:43;16.48;;;9.33;;
13222;SDS011;6676;45.192;5.722;2023-01-15T00:44:35;13.25;;;9.08;;
13222;SDS011;6676;45.192;5.722;2023-01-15T00:47:26;12.75;;;8.65;;
13222;SDS011;6676;45.192;5.722;2023-01-15T00:50:11;11.40;;;8.53;;
13222;SDS011;6676;45.192;5.722;2023-01-15T00:53:04;11.88;;;8.75;;
13222;SDS011;6676;45.192;5.722;2023-01-15T00:55:55;12.55;;;9.00;;
13222;SDS011;6676;45.192;5.722;2023-01-15T00:58:48;13.00;;;8.48;;
13222;SDS011;6676;45.192;5.722;2023-01-15T01:01:33;10.88;;;8.30;;
13222;SDS011;6676;45.192;5.722;2023-01-15T01:07:05;10.65;;;8.55;;
13222;SDS011;6676;45.192;5.722;2023-01-15T01:10:03;11.12;;;8.85;;
13222;SDS011;6676;45.192;5.722;2023-01-15T01:12:56;12.63;;;8.48;;
13222;SDS011;6676;45.192;5.722;2023-01-15T01:15:54;13.40;;;8.80;;
13222;SDS011;6676;45.192;5.722;2023-01-15T01:18:37;11.60;;;9.08;;
13222;SDS011;6676;45.192;5.722;2023-01-15T01:21:29;11.33;;;8.18;;
13222;SDS011;6676;45.192;5.722;2023-01-15T01:24:23;11.03;;;8.00;;
13222;SDS011;6676;45.192;5.722;2023-01-15T01:27:14;10.95;;;8.25;;
13222;SDS011;6676;45.192;5.722;2023-01-15T01:30:08;10.38;;;8.05;;
13222;SDS011;6676;45.192;5.722;2023-01-15T01:33:01;15.68;;;8.20;;
13222;SDS011;6676;45.192;5.722;2023-01-15T01:35:57;10.05;;;7.92;;
13222;SDS011;6676;45.192;5.722;2023-01-15T01:38:49;11.28;;;8.45;;
13222;SDS011;6676;45.192;5.722;2023-01-15T01:41:54;9.48;;;7.65;;
13222;SDS011;6676;45.192;5.722;2023-01-15T01:45:10;11.75;;;7.85;;
13222;SDS011;6676;45.192;5.722;2023-01-15T01:48:05;9.78;;;7.67;;
13222;SDS011;6676;45.192;5.722;2023-01-15T01:50:58;10.48;;;7.67;;
13222;SDS011;6676;45.192;5.722;2023-01-15T01:54:11;11.80;;;8.08;;
13222;SDS011;6676;45.192;5.722;2023-01-15T01:57:06;13.58;;;8.23;;
13222;SDS011;6676;45.192;5.722;2023-01-15T02:00:07;10.48;;;7.20;;
13222;SDS011;6676;45.192;5.722;2023-01-15T02:03:00;10.70;;;6.92;;
13222;SDS011;6676;45.192;5.722;2023-01-15T02:06:01;10.80;;;7.10;;
13222;SDS011;6676;45.192;5.722;2023-01-15T02:08:56;11.78;;;6.97;;
13222;SDS011;6676;45.192;5.722;2023-01-15T02:11:47;9.83;;;6.80;;
13222;SDS011;6676;45.192;5.722;2023-01-15T02:14:36;9.53;;;6.22;;
13222;SDS011;6676;45.192;5.722;2023-01-15T02:20:20;10.18;;;7.05;;
13222;SDS011;6676;45.192;5.722;2023-01-15T02:26:57;7.87;;;6.08;;
13222;SDS011;6676;45.192;5.722;2023-01-15T02:29:50;9.20;;;6.00;;
13222;SDS011;6676;45.192;5.722;2023-01-15T02:32:34;10.03;;;6.45;;
13222;SDS011;6676;45.192;5.722;2023-01-15T02:35:33;9.33;;;7.47;;
13222;SDS011;6676;45.192;5.722;2023-01-15T02:38:20;11.48;;;7.03;;
13222;SDS011;6676;45.192;5.722;2023-01-15T02:41:14;10.08;;;6.87;;
13222;SDS011;6676;45.192;5.722;2023-01-15T02:44:09;10.98;;;6.60;;
13222;SDS011;6676;45.192;5.722;2023-01-15T02:47:02;9.85;;;6.62;;
13222;SDS011;6676;45.192;5.722;2023-01-15T02:50:06;10.53;;;6.50;;
13222;SDS011;6676;45.192;5.722;2023-01-15T02:53:11;11.90;;;6.90;;
13222;SDS011;6676;45.192;5.722;2023-01-15T02:56:12;10.00;;;6.72;;
13222;SDS011;6676;45.192;5.722;2023-01-15T02:59:16;9.45;;;6.50;;
13222;SDS011;6676;45.192;5.722;2023-01-15T03:02:16;9.08;;;6.37;;
13222;SDS011;6676;45.192;5.722;2023-01-15T03:05:16;9.33;;;6.55;;
13222;SDS011;6676;45.192;5.722;2023-01-15T03:08:02;9.83;;;6.80;;
13222;SDS011;6676;45.192;5.722;2023-01-15T03:11:01;9.88;;;7.58;;
13222;SDS011;6676;45.192;5.722;2023-01-15T03:13:57;10.25;;;7.53;;
13222;SDS011;6676;45.192;5.722;2023-01-15T03:16:52;9.65;;;7.55;;
13222;SDS011;6676;45.192;5.722;2023-01-15T03:22:31;11.40;;;9.50;;
13222;SDS011;6676;45.192;5.722;2023-01-15T03:25:28;11.00;;;8.73;;
13222;SDS011;6676;45.192;5.722;2023-01-15T03:28:21;9.73;;;7.87;;
13222;SDS011;6676;45.192;5.722;2023-01-15T03:31:15;14.63;;;8.53;;
13222;SDS011;6676;45.192;5.722;2023-01-15T03:34:13;10.45;;;8.28;;
13222;SDS011;6676;45.192;5.722;2023-01-15T03:37:11;10.78;;;7.92;;
13222;SDS011;6676;45.192;5.722;2023-01-15T03:39:55;12.68;;;8.33;;
13222;SDS011;6676;45.192;5.722;2023-01-15T03:45:40;10.75;;;8.60;;
13222;SDS011;6676;45.192;5.722;2023-01-15T03:48:40;14.38;;;10.28;;
13222;SDS011;6676;45.192;5.722;2023-01-15T03:51:36;13.83;;;9.55;;
13222;SDS011;6676;45.192;5.722;2023-01-15T03:57:25;12.95;;;9.90;;
13222;SDS011;6676;45.192;5.722;2023-01-15T04:00:08;13.08;;;8.60;;
13222;SDS011;6676;45.192;5.722;2023-01-15T04:03:08;11.93;;;8.40;;
13222;SDS011;6676;45.192;5.722;2023-01-15T04:06:02;10.50;;;7.83;;
13222;SDS011;6676;45.192;5.722;2023-01-15T04:08:57;11.08;;;8.43;;
13222;SDS011;6676;45.192;5.722;2023-01-15T04:11:51;11.43;;;8.05;;
13222;SDS011;6676;45.192;5.722;2023-01-15T04:17:26;12.33;;;8.95;;
13222;SDS011;6676;45.192;5.722;2023-01-15T04:23:05;12.15;;;7.55;;
13222;SDS011;6676;45.192;5.722;2023-01-15T04:25:58;12.45;;;7.80;;
13222;SDS011;6676;45.192;5.722;2023-01-15T04:28:50;13.55;;;8.25;;
13222;SDS011;6676;45.192;5.722;2023-01-15T04:31:41;14.98;;;8.23;;
13222;SDS011;6676;45.192;5.722;2023-01-15T04:34:33;11.15;;;7.65;;
13222;SDS011;6676;45.192;5.722;2023-01-15T04:37:32;10.18;;;7.17;;
13222;SDS011;6676;45.192;5.722;2023-01-15T04:40:37;9.70;;;6.60;;
13222;SDS011;6676;45.192;5.722;2023-01-15T04:43:53;10.50;;;6.90;;
13222;SDS011;6676;45.192;5.722;2023-01-15T04:47:01;9.10;;;6.10;;
13222;SDS011;6676;45.192;5.722;2023-01-15T04:49:45;10.20;;;6.70;;
13222;SDS011;6676;45.192;5.722;2023-01-15T04:55:41;10.50;;;6.85;;
13222;SDS011;6676;45.192;5.722;2023-01-15T04:58:32;10.63;;;7.40;;
13222;SDS011;6676;45.192;5.722;2023-01-15T05:01:27;9.75;;;6.92;;
13222;SDS011;6676;45.192;5.722;2023-01-15T05:04:18;10.05;;;6.15;;
13222;SDS011;6676;45.192;5.722;2023-01-15T05:10:11;9.10;;;6.10;;
13222;SDS011;6676;45.192;5.722;2023-01-15T05:13:03;8.73;;;6.00;;
13222;SDS011;6676;45.192;5.722;2023-01-15T05:15:54;10.03;;;5.80;;
13222;SDS011;6676;45.192;5.722;2023-01-15T05:18:46;8.68;;;5.80;;
13222;SDS011;6676;45.192;5.722;2023-01-15T05:21:41;8.93;;;6.42;;
13222;SDS011;6676;45.192;5.722;2023-01-15T05:24:35;8.48;;;5.92;;
13222;SDS011;6676;45.192;5.722;2023-01-15T05:30:19;11.10;;;6.30;;
13222;SDS011;6676;45.192;5.722;2023-01-15T05:35:50;9.18;;;5.60;;
13222;SDS011;6676;45.192;5.722;2023-01-15T05:38:41;8.53;;;5.20;;
13222;SDS011;6676;45.192;5.722;2023-01-15T05:41:32;8.05;;;5.47;;
13222;SDS011;6676;45.192;5.722;2023-01-15T05:47:36;7.80;;;5.83;;
13222;SDS011;6676;45.192;5.722;2023-01-15T05:50:31;7.53;;;5.65;;
13222;SDS011;6676;45.192;5.722;2023-01-15T05:53:22;10.45;;;5.87;;
13222;SDS011;6676;45.192;5.722;2023-01-15T05:56:13;7.78;;;5.50;;
13222;SDS011;6676;45.192;5.722;2023-01-15T06:01:44;7.90;;;5.30;;
13222;SDS011;6676;45.192;5.722;2023-01-15T06:04:38;9.90;;;5.92;;
13222;SDS011;6676;45.192;5.722;2023-01-15T06:07:17;8.80;;;5.75;;
13222;SDS011;6676;45.192;5.722;2023-01-15T06:10:09;7.95;;;5.67;;
13222;SDS011;6676;45.192;5.722;2023-01-15T06:13:01;6.97;;;5.20;;
13222;SDS011;6676;45.192;5.722;2023-01-15T06:15:54;9.80;;;6.12;;
13222;SDS011;6676;45.192;5.722;2023-01-15T06:18:52;10.55;;;5.60;;
13222;SDS011;6676;45.192;5.722;2023-01-15T06:21:44;9.58;;;5.95;;
13222;SDS011;6676;45.192;5.722;2023-01-15T06:24:36;7.65;;;5.65;;
13222;SDS011;6676;45.192;5.722;2023-01-15T06:27:29;9.30;;;5.67;;
13222;SDS011;6676;45.192;5.722;2023-01-15T06:30:20;6.75;;;5.25;;
13222;SDS011;6676;45.192;5.722;2023-01-15T06:36:34;8.25;;;5.30;;
13222;SDS011;6676;45.192;5.722;2023-01-15T06:42:19;8.73;;;5.97;;
13222;SDS011;6676;45.192;5.722;2023-01-15T06:45:29;7.58;;;4.92;;
13222;SDS011;6676;45.192;5.722;2023-01-15T06:48:11;7.60;;;4.75;;
13222;SDS011;6676;45.192;5.722;2023-01-15T06:51:11;5.45;;;4.35;;
13222;SDS011;6676;45.192;5.722;2023-01-15T06:54:06;10.03;;;5.33;;
13222;SDS011;6676;45.192;5.722;2023-01-15T06:57:05;8.53;;;5.15;;
13222;SDS011;6676;45.192;5.722;2023-01-15T06:59:56;7.90;;;4.60;;
13222;SDS011;6676;45.192;5.722;2023-01-15T07:05:37;6.33;;;4.83;;
13222;SDS011;6676;45.192;5.722;2023-01-15T07:08:29;8.05;;;5.20;;
13222;SDS011;6676;45.192;5.722;2023-01-15T07:11:24;7.65;;;5.05;;
13222;SDS011;6676;45.192;5.722;2023-01-15T07:14:16;7.72;;;4.72;;
13222;SDS011;6676;45.192;5.722;2023-01-15T07:17:09;9.30;;;5.05;;
13222;SDS011;6676;45.192;5.722;2023-01-15T07:19:53;9.93;;;5.53;;
13222;SDS011;6676;45.192;5.722;2023-01-15T07:22:45;8.20;;;4.58;;
13222;SDS011;6676;45.192;5.722;2023-01-15T07:25:40;6.40;;;4.78;;
13222;SDS011;6676;45.192;5.722;2023-01-15T07:28:32;10.43;;;5.20;;
13222;SDS011;6676;45.192;5.722;2023-01-15T07:34:01;8.10;;;5.08;;
13222;SDS011;6676;45.192;5.722;2023-01-15T07:37:00;8.25;;;5.53;;
13222;SDS011;6676;45.192;5.722;2023-01-15T07:39:51;6.65;;;5.33;;
13222;SDS011;6676;45.192;5.722;2023-01-15T07:42:42;8.73;;;6.22;;
13222;SDS011;6676;45.192;5.722;2023-01-15T07:45:51;8.43;;;5.60;;
13222;SDS011;6676;45.192;5.722;2023-01-15T07:49:00;10.23;;;5.92;;
13222;SDS011;6676;45.192;5.722;2023-01-15T07:54:52;8.33;;;6.22;;
13222;SDS011;6676;45.192;5.722;2023-01-15T07:57:47;9.88;;;5.62;;
13222;SDS011;6676;45.192;5.722;2023-01-15T08:00:40;7.75;;;5.60;;
13222;SDS011;6676;45.192;5.722;2023-01-15T08:03:31;8.88;;;6.33;;
13222;SDS011;6676;45.192;5.722;2023-01-15T08:06:22;8.33;;;5.53;;
13222;SDS011;6676;45.192;5.722;2023-01-15T08:09:03;6.72;;;5.50;;
13222;SDS011;6676;45.192;5.722;2023-01-15T08:12:01;8.48;;;5.70;;
13222;SDS011;6676;45.192;5.722;2023-01-15T08:15:18;8.18;;;5.83;;
13222;SDS011;6676;45.192;5.722;2023-01-15T08:18:15;10.95;;;5.78;;
13222;SDS011;6676;45.192;5.722;2023-01-15T08:20:55;8.98;;;5.90;;
13222;SDS011;6676;45.192;5.722;2023-01-15T08:23:53;10.23;;;5.95;;
13222;SDS011;6676;45.192;5.722;2023-01-15T08:26:51;9.85;;;5.87;;
13222;SDS011;6676;45.192;5.722;2023-01-15T08:29:53;8.90;;;6.20;;
13222;SDS011;6676;45.192;5.722;2023-01-15T08:32:45;11.28;;;6.15;;
13222;SDS011;6676;45.192;5.722;2023-01-15T08:35:36;7.55;;;5.58;;
13222;SDS011;6676;45.192;5.722;2023-01-15T08:41:06;9.18;;;5.85;;
13222;SDS011;6676;45.192;5.722;2023-01-15T08:43:57;6.65;;;5.33;;
13222;SDS011;6676;45.192;5.722;2023-01-15T08:46:49;9.15;;;5.62;;
13222;SDS011;6676;45.192;5.722;2023-01-15T08:49:40;7.42;;;5.45;;
13222;SDS011;6676;45.192;5.722;2023-01-15T08:55:14;8.28;;;5.85;;
13222;SDS011;6676;45.192;5.722;2023-01-15T09:00:49;7.60;;;5.80;;
13222;SDS011;6676;45.192;5.722;2023-01-15T09:06:20;7.70;;;5.47;;
13222;SDS011;6676;45.192;5.722;2023-01-15T09:09:12;12.50;;;5.42;;
13222;SDS011;6676;45.192;5.722;2023-01-15T09:12:05;6.53;;;4.50;;
13222;SDS011;6676;45.192;5.722;2023-01-15T09:14:56;8.10;;;5.53;;
13222;SDS011;6676;45.192;5.722;2023-01-15T09:20:29;8.95;;;4.95;;
13222;SDS011;6676;45.192;5.722;2023-01-15T09:23:21;7.95;;;5.25;;
13222;SDS011;6676;45.192;5.722;2023-01-15T09:26:27;8.98;;;4.47;;
13222;SDS011;6676;45.192;5.722;2023-01-15T09:29:19;5.78;;;3.77;;
13222;SDS011;6676;45.192;5.722;2023-01-15T09:32:11;7.47;;;3.92;;
13222;SDS011;6676;45.192;5.722;2023-01-15T09:35:06;7.10;;;3.92;;
13222;SDS011;6676;45.192;5.722;2023-01-15T09:40:42;5.37;;;3.08;;
13222;SDS011;6676;45.192;5.722;2023-01-15T09:43:38;4.62;;;2.22;;
13222;SDS011;6676;45.192;5.722;2023-01-15T09:46:35;7.08;;;2.62;;
13222;SDS011;6676;45.192;5.722;2023-01-15T09:49:32;4.87;;;2.37;;
13222;SDS011;6676;45.192;5.722;2023-01-15T09:52:31;5.90;;;1.85;;
13222;SDS011;6676;45.192;5.722;2023-01-15T09:55:15;2.60;;;1.27;;
13222;SDS011;6676;45.192;5.722;2023-01-15T09:58:08;1.47;;;1.10;;
13222;SDS011;6676;45.192;5.722;2023-01-15T10:01:02;2.87;;;1.50;;
13222;SDS011;6676;45.192;5.722;2023-01-15T10:03:58;3.65;;;1.87;;
13222;SDS011;6676;45.192;5.722;2023-01-15T10:07:02;2.33;;;1.37;;
13222;SDS011;6676;45.192;5.722;2023-01-15T10:10:03;1.85;;;1.20;;
13222;SDS011;6676;45.192;5.722;2023-01-15T10:12:43;3.33;;;0.80;;
13222;SDS011;6676;45.192;5.722;2023-01-15T10:15:39;0.60;;;0.40;;
13222;SDS011;6676;45.192;5.722;2023-01-15T10:18:32;1.02;;;0.50;;
13222;SDS011;6676;45.192;5.722;2023-01-15T10:21:26;0.50;;;0.30;;
13222;SDS011;6676;45.192;5.722;2023-01-15T10:24:21;1.00;;;0.20;;
13222;SDS011;6676;45.192;5.722;2023-01-15T10:30:01;0.10;;;0.10;;
13222;SDS011;6676;45.192;5.722;2023-01-15T10:35:37;0.20;;;0.10;;
13222;SDS011;6676;45.192;5.722;2023-01-15T10:38:35;0.00;;;0.00;;
13222;SDS011;6676;45.192;5.722;2023-01-15T10:41:36;0.65;;;0.03;;
13222;SDS011;6676;45.192;5.722;2023-01-15T10:44:36;0.10;;;0.00;;
13222;SDS011;6676;45.192;5.722;2023-01-15T10:50:14;0.00;;;0.00;;
13222;SDS011;6676;45.192;5.722;2023-01-15T10:53:10;0.10;;;0.08;;
13222;SDS011;6676;45.192;5.722;2023-01-15T10:56:06;0.00;;;0.00;;
13222;SDS011;6676;45.192;5.722;2023-01-15T11:01:39;0.00;;;0.00;;
13222;SDS011;6676;45.192;5.722;2023-01-15T11:04:38;0.00;;;0.00;;
13222;SDS011;6676;45.192;5.722;2023-01-15T11:10:12;0.00;;;0.00;;
13222;SDS011;6676;45.192;5.722;2023-01-15T11:12:51;0.00;;;0.00;;
13222;SDS011;6676;45.192;5.722;2023-01-15T11:16:03;0.10;;;0.00;;
13222;SDS011;6676;45.192;5.722;2023-01-15T11:19:24;0.20;;;0.10;;
13222;SDS011;6676;45.192;5.722;2023-01-15T11:25:25;0.03;;;0.03;;
13222;SDS011;6676;45.192;5.722;2023-01-15T11:30:57;0.13;;;0.10;;
13222;SDS011;6676;45.192;5.722;2023-01-15T11:33:56;0.47;;;0.10;;
13222;SDS011;6676;45.192;5.722;2023-01-15T11:36:36;0.55;;;0.47;;
13222;SDS011;6676;45.192;5.722;2023-01-15T11:39:27;0.23;;;0.20;;
13222;SDS011;6676;45.192;5.722;2023-01-15T11:44:57;0.10;;;0.10;;
13222;SDS011;6676;45.192;5.722;2023-01-15T11:48:13;0.37;;;0.20;;
13222;SDS011;6676;45.192;5.722;2023-01-15T11:51:24;0.15;;;0.10;;
13222;SDS011;6676;45.192;5.722;2023-01-15T11:54:17;0.23;;;0.20;;
13222;SDS011;6676;45.192;5.722;2023-01-15T11:57:10;0.37;;;0.20;;
13222;SDS011;6676;45.192;5.722;2023-01-15T12:00:04;0.55;;;0.30;;
13222;SDS011;6676;45.192;5.722;2023-01-15T12:05:45;0.80;;;0.33;;
13222;SDS011;6676;45.192;5.722;2023-01-15T12:14:39;0.28;;;0.20;;
13222;SDS011;6676;45.192;5.722;2023-01-15T12:20:53;0.65;;;0.10;;
13222;SDS011;6676;45.192;5.722;2023-01-15T12:24:07;0.20;;;0.17;;
13222;SDS011;6676;45.192;5.722;2023-01-15T12:27:10;0.10;;;0.10;;
13222;SDS011;6676;45.192;5.722;2023-01-15T12:30:15;0.20;;;0.10;;
13222;SDS011;6676;45.192;5.722;2023-01-15T12:33:05;0.20;;;0.20;;
13222;SDS011;6676;45.192;5.722;2023-01-15T12:36:01;1.00;;;0.40;;
13222;SDS011;6676;45.192;5.722;2023-01-15T12:38:55;0.85;;;0.68;;
13222;SDS011;6676;45.192;5.722;2023-01-15T12:41:51;0.70;;;0.50;;
13222;SDS011;6676;45.192;5.722;2023-01-15T12:45:02;0.57;;;0.40;;
13222;SDS011;6676;45.192;5.722;2023-01-15T12:50:38;0.30;;;0.20;;
13222;SDS011;6676;45.192;5.722;2023-01-15T12:56:13;0.40;;;0.10;;
13222;SDS011;6676;45.192;5.722;2023-01-15T12:59:15;0.17;;;0.10;;
13222;SDS011;6676;45.192;5.722;2023-01-15T13:05:02;1.07;;;0.17;;
13222;SDS011;6676;45.192;5.722;2023-01-15T13:10:38;0.70;;;0.35;;
13222;SDS011;6676;45.192;5.722;2023-01-15T13:16:13;0.20;;;0.20;;
13222;SDS011;6676;45.192;5.722;2023-01-15T13:19:16;0.45;;;0.28;;
13222;SDS011;6676;45.192;5.722;2023-01-15T13:22:02;0.25;;;0.20;;
13222;SDS011;6676;45.192;5.722;2023-01-15T13:25:07;0.20;;;0.10;;
13222;SDS011;6676;45.192;5.722;2023-01-15T13:28:21;0.20;;;0.20;;
13222;SDS011;6676;45.192;5.722;2023-01-15T13:31:36;0.42;;;0.15;;
13222;SDS011;6676;45.192;5.722;2023-01-15T13:34:38;0.10;;;0.10;;
13222;SDS011;6676;45.192;5.722;2023-01-15T13:37:22;0.23;;;0.00;;
13222;SDS011;6676;45.192;5.722;2023-01-15T13:40:21;0.10;;;0.10;;
13222;SDS011;6676;45.192;5.722;2023-01-15T13:43:20;0.10;;;0.10;;
13222;SDS011;6676;45.192;5.722;2023-01-15T13:46:27;0.10;;;0.10;;
13222;SDS011;6676;45.192;5.722;2023-01-15T13:49:19;0.03;;;0.03;;
13222;SDS011;6676;45.192;5.722;2023-01-15T13:52:19;0.13;;;0.10;;
13222;SDS011;6676;45.192;5.722;2023-01-15T13:55:26;0.20;;;0.13;;
13222;SDS011;6676;45.192;5.722;2023-01-15T13:58:20;0.10;;;0.10;;
13222;SDS011;6676;45.192;5.722;2023-01-15T14:01:19;0.10;;;0.10;;
13222;SDS011;6676;45.192;5.722;2023-01-15T14:04:30;0.20;;;0.10;;
13222;SDS011;6676;45.192;5.722;2023-01-15T14:07:30;0.20;;;0.10;;
13222;SDS011;6676;45.192;5.722;2023-01-15T14:10:25;0.10;;;0.10;;
13222;SDS011;6676;45.192;5.722;2023-01-15T14:17:23;0.33;;;0.30;;
13222;SDS011;6676;45.192;5.722;2023-01-15T14:20:35;0.20;;;0.20;;
13222;SDS011;6676;45.192;5.722;2023-01-15T14:23:42;0.23;;;0.23;;
13222;SDS011;6676;45.192;5.722;2023-01-15T14:26:46;0.70;;;0.42;;
13222;SDS011;6676;45.192;5.722;2023-01-15T14:30:00;1.27;;;0.85;;
13222;SDS011;6676;45.192;5.722;2023-01-15T14:35:40;0.42;;;0.30;;
13222;SDS011;6676;45.192;5.722;2023-01-15T14:38:43;0.78;;;0.40;;
13222;SDS011;6676;45.192;5.722;2023-01-15T14:41:35;0.72;;;0.50;;
13222;SDS011;6676;45.192;5.722;2023-01-15T14:44:47;0.50;;;0.30;;
13222;SDS011;6676;45.192;5.722;2023-01-15T14:50:33;0.95;;;0.50;;
13222;SDS011;6676;45.192;5.722;2023-01-15T14:53:28;2.35;;;0.50;;
13222;SDS011;6676;45.192;5.722;2023-01-15T14:56:26;1.30;;;0.70;;
13222;SDS011;6676;45.192;5.722;2023-01-15T14:59:20;0.95;;;0.70;;
13222;SDS011;6676;45.192;5.722;2023-01-15T15:02:17;1.75;;;0.70;;
13222;SDS011;6676;45.192;5.722;2023-01-15T15:05:10;0.50;;;0.50;;
13222;SDS011;6676;45.192;5.722;2023-01-15T15:08:11;1.37;;;0.60;;
13222;SDS011;6676;45.192;5.722;2023-01-15T15:11:05;2.42;;;1.72;;
13222;SDS011;6676;45.192;5.722;2023-01-15T15:13:50;0.80;;;0.68;;
13222;SDS011;6676;45.192;5.722;2023-01-15T15:16:43;0.78;;;0.70;;
13222;SDS011;6676;45.192;5.722;2023-01-15T15:19:49;1.85;;;0.80;;
13222;SDS011;6676;45.192;5.722;2023-01-15T15:25:22;1.10;;;0.70;;
13222;SDS011;6676;45.192;5.722;2023-01-15T15:30:55;0.65;;;0.50;;
13222;SDS011;6676;45.192;5.722;2023-01-15T15:33:49;0.93;;;0.70;;
13222;SDS011;6676;45.192;5.722;2023-01-15T15:36:43;0.95;;;0.60;;
13222;SDS011;6676;45.192;5.722;2023-01-15T15:39:40;1.00;;;0.40;;
13222;SDS011;6676;45.192;5.722;2023-01-15T15:42:30;1.35;;;0.60;;
13222;SDS011;6676;45.192;5.722;2023-01-15T15:45:49;1.20;;;0.70;;
13222;SDS011;6676;45.192;5.722;2023-01-15T15:48:58;0.85;;;0.60;;
13222;SDS011;6676;45.192;5.722;2023-01-15T15:51:50;1.30;;;0.80;;
13222;SDS011;6676;45.192;5.722;2023-01-15T15:54:42;1.00;;;0.90;;
13222;SDS011;6676;45.192;5.722;2023-01-15T15:57:40;1.70;;;0.70;;
13222;SDS011;6676;45.192;5.722;2023-01-15T16:00:33;1.30;;;1.07;;
13222;SDS011;6676;45.192;5.722;2023-01-15T16:03:31;1.52;;;1.02;;
13222;SDS011;6676;45.192;5.722;2023-01-15T16:06:23;2.77;;;1.20;;
13222;SDS011;6676;45.192;5.722;2023-01-15T16:09:25;2.60;;;1.90;;
13222;SDS011;6676;45.192;5.722;2023-01-15T16:12:17;1.77;;;1.17;;
13222;SDS011;6676;45.192;5.722;2023-01-15T16:14:58;2.60;;;1.22;;
13222;SDS011;6676;45.192;5.722;2023-01-15T16:17:50;2.22;;;1.30;;
13222;SDS011;6676;45.192;5.722;2023-01-15T16:20:43;1.40;;;0.95;;
13222;SDS011;6676;45.192;5.722;2023-01-15T16:23:34;1.40;;;0.88;;
13222;SDS011;6676;45.192;5.722;2023-01-15T16:26:29;1.40;;;0.90;;
13222;SDS011;6676;45.192;5.722;2023-01-15T16:29:24;1.30;;;1.00;;
13222;SDS011;6676;45.192;5.722;2023-01-15T16:32:19;1.70;;;1.30;;
13222;SDS011;6676;45.192;5.722;2023-01-15T16:35:17;1.30;;;0.90;;
13222;SDS011;6676;45.192;5.722;2023-01-15T16:38:14;1.77;;;1.15;;
13222;SDS011;6676;45.192;5.722;2023-01-15T16:41:15;1.10;;;0.72;;
13222;SDS011;6676;45.192;5.722;2023-01-15T16:44:20;2.72;;;1.35;;
13222;SDS011;6676;45.192;5.722;2023-01-15T16:46:52;1.40;;;1.00;;
13222;SDS011;6676;45.192;5.722;2023-01-15T16:49:46;2.20;;;1.40;;
13222;SDS011;6676;45.192;5.722;2023-01-15T16:52:47;3.45;;;1.65;;
13222;SDS011;6676;45.192;5.722;2023-01-15T16:55:42;3.52;;;1.80;;
13222;SDS011;6676;45.192;5.722;2023-01-15T17:04:16;3.33;;;2.20;;
13222;SDS011;6676;45.192;5.722;2023-01-15T17:07:14;2.95;;;2.08;;
13222;SDS011;6676;45.192;5.722;2023-01-15T17:13:15;3.12;;;2.50;;
13222;SDS011;6676;45.192;5.722;2023-01-15T17:16:15;4.42;;;3.00;;
13222;SDS011;6676;45.192;5.722;2023-01-15T17:19:08;4.92;;;3.08;;
13222;SDS011;6676;45.192;5.722;2023-01-15T17:22:00;5.35;;;3.27;;
13222;SDS011;6676;45.192;5.722;2023-01-15T17:24:52;5.95;;;4.05;;
13222;SDS011;6676;45.192;5.722;2023-01-15T17:30:22;3.87;;;3.10;;
13222;SDS011;6676;45.192;5.722;2023-01-15T17:33:23;5.00;;;3.62;;
13222;SDS011;6676;45.192;5.722;2023-01-15T17:36:14;5.50;;;4.55;;
13222;SDS011;6676;45.192;5.722;2023-01-15T17:39:05;6.47;;;4.72;;
13222;SDS011;6676;45.192;5.722;2023-01-15T17:42:00;6.25;;;4.85;;
13222;SDS011;6676;45.192;5.722;2023-01-15T17:44:50;6.58;;;5.05;;
13222;SDS011;6676;45.192;5.722;2023-01-15T17:47:41;6.20;;;4.12;;
13222;SDS011;6676;45.192;5.722;2023-01-15T17:50:33;4.57;;;3.70;;
13222;SDS011;6676;45.192;5.722;2023-01-15T17:53:25;6.03;;;4.27;;
13222;SDS011;6676;45.192;5.722;2023-01-15T17:56:17;4.95;;;4.15;;
13222;SDS011;6676;45.192;5.722;2023-01-15T17:59:26;3.37;;;2.95;;
13222;SDS011;6676;45.192;5.722;2023-01-15T18:02:35;3.42;;;2.80;;
13222;SDS011;6676;45.192;5.722;2023-01-15T18:05:44;4.15;;;3.58;;
13222;SDS011;6676;45.192;5.722;2023-01-15T18:11:32;4.15;;;3.22;;
13222;SDS011;6676;45.192;5.722;2023-01-15T18:17:09;5.62;;;4.58;;
13222;SDS011;6676;45.192;5.722;2023-01-15T18:20:00;6.55;;;4.90;;
13222;SDS011;6676;45.192;5.722;2023-01-15T18:23:00;7.55;;;5.35;;
13222;SDS011;6676;45.192;5.722;2023-01-15T18:25:53;6.35;;;5.25;;
13222;SDS011;6676;45.192;5.722;2023-01-15T18:28:45;7.10;;;4.78;;
13222;SDS011;6676;45.192;5.722;2023-01-15T18:31:37;6.40;;;4.90;;
13222;SDS011;6676;45.192;5.722;2023-01-15T18:34:29;7.22;;;5.30;;
13222;SDS011;6676;45.192;5.722;2023-01-15T18:37:12;5.67;;;4.65;;
13222;SDS011;6676;45.192;5.722;2023-01-15T18:40:05;6.83;;;5.15;;
13222;SDS011;6676;45.192;5.722;2023-01-15T18:42:58;10.28;;;6.60;;
13222;SDS011;6676;45.192;5.722;2023-01-15T18:46:14;10.32;;;5.65;;
13222;SDS011;6676;45.192;5.722;2023-01-15T18:49:23;7.72;;;5.72;;
13222;SDS011;6676;45.192;5.722;2023-01-15T18:52:15;8.50;;;6.58;;
13222;SDS011;6676;45.192;5.722;2023-01-15T18:55:26;8.23;;;6.65;;
13222;SDS011;6676;45.192;5.722;2023-01-15T19:01:13;9.98;;;7.03;;
13222;SDS011;6676;45.192;5.722;2023-01-15T19:04:12;9.55;;;7.37;;
13222;SDS011;6676;45.192;5.722;2023-01-15T19:07:04;11.00;;;7.62;;
13222;SDS011;6676;45.192;5.722;2023-01-15T19:09:58;11.73;;;8.55;;
13222;SDS011;6676;45.192;5.722;2023-01-15T19:12:50;12.78;;;8.80;;
13222;SDS011;6676;45.192;5.722;2023-01-15T19:15:48;12.90;;;9.40;;
13222;SDS011;6676;45.192;5.722;2023-01-15T19:18:57;12.98;;;9.98;;
13222;SDS011;6676;45.192;5.722;2023-01-15T19:21:49;13.22;;;9.43;;
13222;SDS011;6676;45.192;5.722;2023-01-15T19:25:01;12.55;;;8.58;;
13222;SDS011;6676;45.192;5.722;2023-01-15T19:27:55;12.23;;;9.70;;
13222;SDS011;6676;45.192;5.722;2023-01-15T19:30:47;11.70;;;9.33;;
13222;SDS011;6676;45.192;5.722;2023-01-15T19:34:00;11.68;;;8.90;;
13222;SDS011;6676;45.192;5.722;2023-01-15T19:37:00;11.63;;;8.73;;
13222;SDS011;6676;45.192;5.722;2023-01-15T19:39:52;13.35;;;9.43;;
13222;SDS011;6676;45.192;5.722;2023-01-15T19:42:44;14.03;;;10.13;;
13222;SDS011;6676;45.192;5.722;2023-01-15T19:45:33;11.73;;;9.30;;
13222;SDS011;6676;45.192;5.722;2023-01-15T19:48:44;11.48;;;8.83;;
13222;SDS011;6676;45.192;5.722;2023-01-15T19:54:38;11.95;;;9.13;;
13222;SDS011;6676;45.192;5.722;2023-01-15T19:57:44;13.15;;;9.25;;
13222;SDS011;6676;45.192;5.722;2023-01-15T20:00:46;12.33;;;9.40;;
13222;SDS011;6676;45.192;5.722;2023-01-15T20:03:37;11.75;;;9.05;;
13222;SDS011;6676;45.192;5.722;2023-01-15T20:06:21;12.80;;;9.18;;
13222;SDS011;6676;45.192;5.722;2023-01-15T20:09:13;10.32;;;8.20;;
13222;SDS011;6676;45.192;5.722;2023-01-15T20:12:04;11.48;;;8.30;;
13222;SDS011;6676;45.192;5.722;2023-01-15T20:15:15;11.08;;;8.45;;
13222;SDS011;6676;45.192;5.722;2023-01-15T20:22:02;13.40;;;11.15;;
13222;SDS011;6676;45.192;5.722;2023-01-15T20:24:54;11.18;;;9.38;;
13222;SDS011;6676;45.192;5.722;2023-01-15T20:30:24;12.28;;;9.50;;
13222;SDS011;6676;45.192;5.722;2023-01-15T20:33:16;14.23;;;10.18;;
13222;SDS011;6676;45.192;5.722;2023-01-15T20:38:51;11.43;;;9.45;;
13222;SDS011;6676;45.192;5.722;2023-01-15T20:41:42;11.28;;;8.30;;
13222;SDS011;6676;45.192;5.722;2023-01-15T20:44:59;12.60;;;9.00;;